Atlantic Beach, Florida
Current Conditions -  °F | °C
As of 4:57 AM on Friday 19 Dec 2014 (Local Time) from KNRB Reporting Station
Broken Clouds Broken Clouds  
Wind Chill: 52°   Ceiling: 22000
Heat Index: 52°   Visibility: 10mi
Dew Point: 43°   Wind: 0mph
Humidity: 71%   Direction: NA
Pressure: 30.09"   Gusts: NA
Location:  30.33°N, 81.4°W
Report Text: KNRB 190957Z 00000KT 10SM BKN220 11/06 A3009 RMK AO2 T01110061 $
Loading
Personal Weather Stations






























Interactive Weather Map New forecast layout! Learn more

10-Day Weather Forecast

Advertisements
Track Severe Weather on mobile